Time;durP1;ratioP1;P1;durP2;ratioP2;P2;SDS_P1;SDS_P2;PMS_P1;PMS_P2;Temp;Humidity;BMP_temperature;BMP_pressure;BME280_temperature;BME280_humidity;BME280_pressure;Samples;Min_cycle;Max_cycle;Signal;HPM_P1;HPM_P2
2022/10/31 00:01:21;;;;;;;5.83;3.00;;;;;;;14.53;54.20;97271.34;4965905;28;20625;-75
2022/10/31 00:03:48;;;;;;;4.57;3.30;;;;;;;14.51;54.01;97271.44;4968460;28;20202;-76
2022/10/31 00:06:17;;;;;;;4.87;3.30;;;;;;;14.52;54.26;97273.16;4967266;28;20191;-76
2022/10/31 00:08:53;;;;;;;5.07;3.17;;;;;;;14.53;53.88;97277.41;4968381;28;20299;-75
2022/10/31 00:11:20;;;;;;;7.37;3.27;;;;;;;14.48;54.02;97266.44;4968953;28;20192;-76
2022/10/31 00:13:47;;;;;;;6.17;3.70;;;;;;;14.46;53.80;97276.09;4970639;28;20645;-75
2022/10/31 00:16:22;;;;;;;5.57;3.27;;;;;;;14.46;54.39;97277.88;4971884;28;20216;-75
2022/10/31 00:18:55;;;;;;;5.60;3.20;;;;;;;14.31;54.92;97279.56;4971109;28;20273;-75
2022/10/31 00:21:22;;;;;;;6.17;3.60;;;;;;;14.25;55.09;97271.22;4972154;28;20206;-75
2022/10/31 00:23:49;;;;;;;5.37;3.90;;;;;;;14.28;54.97;97276.28;4970844;28;20223;-75
2022/10/31 00:26:16;;;;;;;6.90;3.90;;;;;;;14.19;55.54;97271.56;4970438;28;20186;-76
2022/10/31 00:28:44;;;;;;;7.60;3.97;;;;;;;14.18;55.51;97275.13;4971583;28;20203;-75
2022/10/31 00:31:12;;;;;;;9.63;4.07;;;;;;;14.25;55.41;97279.88;4971356;28;20205;-75
2022/10/31 00:33:40;;;;;;;7.00;3.50;;;;;;;14.24;54.96;97275.59;4971690;28;20666;-75
2022/10/31 00:36:10;;;;;;;6.27;3.37;;;;;;;14.12;55.08;97252.84;4969327;28;20293;-75
2022/10/31 00:38:39;;;;;;;5.10;3.20;;;;;;;14.28;55.43;97264.09;4954469;28;20195;-75
2022/10/31 00:41:06;;;;;;;6.53;3.73;;;;;;;14.28;55.03;97258.03;4970598;28;20205;-75
2022/10/31 00:43:33;;;;;;;7.53;4.27;;;;;;;14.34;55.24;97258.53;4954307;28;20580;-75
2022/10/31 00:46:00;;;;;;;5.77;2.97;;;;;;;14.42;54.84;97255.53;4969689;28;20209;-75
2022/10/31 00:48:28;;;;;;;6.67;3.30;;;;;;;14.47;54.98;97254.31;4971520;28;20228;-76
2022/10/31 00:50:55;;;;;;;5.83;3.67;;;;;;;14.50;54.78;97259.38;4970108;28;20195;-75
2022/10/31 00:53:22;;;;;;;4.57;3.13;;;;;;;14.60;54.69;97265.72;4970454;28;20195;-75
2022/10/31 00:55:50;;;;;;;5.67;3.33;;;;;;;14.65;54.39;97253.25;4970197;28;20261;-75
2022/10/31 00:58:17;;;;;;;6.73;3.43;;;;;;;14.79;54.04;97264.63;4970153;28;20564;-75
2022/10/31 01:00:44;;;;;;;4.50;3.43;;;;;;;14.79;54.13;97268.09;4969962;28;20191;-76
2022/10/31 01:03:16;;;;;;;5.43;2.73;;;;;;;14.86;54.00;97265.97;4969169;28;20193;-74
2022/10/31 01:05:43;;;;;;;4.90;2.77;;;;;;;14.87;54.00;97267.63;4969792;28;20196;-75
2022/10/31 01:08:10;;;;;;;6.90;3.07;;;;;;;14.83;53.75;97250.50;4970742;28;20223;-75
2022/10/31 01:10:37;;;;;;;7.03;3.87;;;;;;;14.89;53.87;97263.16;4970240;28;20284;-76
2022/10/31 01:13:04;;;;;;;4.00;2.80;;;;;;;14.87;54.11;97262.41;4976490;28;20210;-75
2022/10/31 01:15:31;;;;;;;7.23;3.20;;;;;;;14.86;54.05;97266.78;4984793;28;20212;-76
2022/10/31 01:17:58;;;;;;;5.27;2.90;;;;;;;14.92;53.77;97271.63;4969443;28;20317;-73
2022/10/31 01:20:25;;;;;;;9.73;3.07;;;;;;;14.85;54.38;97270.34;4957749;28;20836;-76
2022/10/31 01:22:53;;;;;;;7.40;3.63;;;;;;;14.84;54.04;97263.44;4969249;28;20207;-74
2022/10/31 01:25:23;;;;;;;5.93;3.23;;;;;;;14.84;54.53;97273.03;4957119;28;20188;-75
2022/10/31 01:27:50;;;;;;;4.53;3.30;;;;;;;14.88;54.27;97266.72;4968689;28;20807;-74
2022/10/31 01:30:17;;;;;;;4.90;3.27;;;;;;;14.90;54.26;97276.09;4970705;28;20945;-74
2022/10/31 01:32:44;;;;;;;5.27;3.07;;;;;;;15.01;54.32;97271.09;4968496;28;20220;-74
2022/10/31 01:35:10;;;;;;;7.77;3.70;;;;;;;14.96;54.52;97265.31;4969633;28;20194;-74
2022/10/31 01:37:37;;;;;;;4.97;3.20;;;;;;;14.96;54.70;97259.28;4968438;28;20195;-74
2022/10/31 01:40:05;;;;;;;4.53;3.20;;;;;;;14.92;54.85;97260.38;4969065;28;20196;-74
2022/10/31 01:42:32;;;;;;;6.93;3.37;;;;;;;14.98;54.74;97262.63;4969043;28;20272;-76
2022/10/31 01:45:01;;;;;;;7.83;3.50;;;;;;;15.04;54.35;97255.28;4969675;28;20785;-75
2022/10/31 01:47:41;;;;;;;5.20;2.97;;;;;;;15.02;54.96;97261.50;4969028;28;20224;-74
2022/10/31 01:50:38;;;;;;;4.40;2.80;;;;;;;15.04;55.07;97255.28;4969324;28;20199;-74
2022/10/31 01:53:07;;;;;;;4.10;3.23;;;;;;;15.08;54.59;97253.31;4958664;28;20695;-74
2022/10/31 01:55:38;;;;;;;4.83;3.10;;;;;;;15.03;54.97;97252.75;4969827;28;20192;-74
2022/10/31 01:58:13;;;;;;;7.17;2.83;;;;;;;15.18;54.87;97246.63;4968217;28;20626;-73
2022/10/31 02:00:43;;;;;;;6.57;2.73;;;;;;;15.38;55.18;97252.28;4970452;28;20717;-73
2022/10/31 02:03:11;;;;;;;4.03;2.90;;;;;;;15.42;54.74;97252.94;4969141;28;20580;-74
2022/10/31 02:05:38;;;;;;;4.70;3.03;;;;;;;15.45;54.23;97250.19;4953081;28;20193;-73
2022/10/31 02:08:20;;;;;;;3.93;2.63;;;;;;;15.68;54.30;97252.22;4969342;28;20642;-74
2022/10/31 02:10:49;;;;;;;6.10;2.60;;;;;;;16.18;53.63;97243.75;4968426;28;20303;-74
2022/10/31 02:13:18;;;;;;;8.90;2.60;;;;;;;16.57;52.92;97242.97;4968707;28;20194;-74
2022/10/31 02:15:51;;;;;;;4.27;2.50;;;;;;;16.95;52.35;97246.44;4967409;28;21148;-74
2022/10/31 02:18:19;;;;;;;3.23;2.07;;;;;;;17.19;51.57;97226.44;4968494;28;20236;-73
2022/10/31 02:20:59;;;;;;;4.10;2.07;;;;;;;17.64;50.67;97238.97;4967588;28;20181;-74
2022/10/31 02:23:31;;;;;;;13.37;3.13;;;;;;;17.55;50.59;97241.41;4969589;28;20240;-74
2022/10/31 02:26:08;;;;;;;4.47;2.63;;;;;;;17.53;51.09;97246.78;4968233;28;20668;-74
2022/10/31 02:29:03;;;;;;;3.60;2.23;;;;;;;17.59;50.74;97238.47;4967649;28;20226;-74
2022/10/31 02:31:53;;;;;;;6.63;2.80;;;;;;;17.40;50.67;97243.28;4952610;28;20237;-75
2022/10/31 02:34:41;;;;;;;5.20;2.87;;;;;;;17.26;51.11;97243.41;4951315;28;20770;-74
2022/10/31 02:37:16;;;;;;;8.23;2.63;;;;;;;17.42;51.48;97244.03;4951267;28;20195;-74
2022/10/31 02:40:05;;;;;;;6.73;2.27;;;;;;;17.71;50.63;97248.09;4968262;28;20665;-75
2022/10/31 02:43:20;;;;;;;6.80;2.60;;;;;;;17.47;50.12;97257.66;4968715;28;20277;-75
2022/10/31 02:45:54;;;;;;;3.93;2.43;;;;;;;17.23;50.98;97253.28;4968602;28;20193;-74
2022/10/31 02:48:27;;;;;;;4.77;2.20;;;;;;;17.02;51.44;97260.81;4968093;28;20236;-74
2022/10/31 02:51:00;;;;;;;5.80;2.30;;;;;;;16.90;51.70;97256.38;4950888;28;20202;-74
2022/10/31 02:53:35;;;;;;;6.60;2.73;;;;;;;16.92;51.83;97275.41;4951826;28;20216;-74
2022/10/31 02:56:12;;;;;;;4.83;2.30;;;;;;;16.61;51.88;97242.63;4951334;28;20621;-74
2022/10/31 02:58:44;;;;;;;6.67;2.60;;;;;;;16.74;52.08;97280.13;4968451;28;20195;-73
2022/10/31 03:01:36;;;;;;;5.23;2.60;;;;;;;16.94;52.40;97290.09;4967776;28;20287;-74
2022/10/31 03:04:12;;;;;;;5.23;2.53;;;;;;;17.42;51.64;97288.53;4950533;28;20201;-73
2022/10/31 03:07:08;;;;;;;3.13;2.17;;;;;;;17.69;50.65;97286.66;4967602;28;20624;-73
2022/10/31 03:09:51;;;;;;;6.97;2.60;;;;;;;17.92;49.96;97292.06;4951556;28;20243;-74
2022/10/31 03:12:21;;;;;;;5.13;2.80;;;;;;;18.05;49.72;97285.84;4966486;28;20221;-74
2022/10/31 03:15:10;;;;;;;7.40;2.90;;;;;;;18.10;49.69;97296.81;4967692;28;20193;-75
2022/10/31 03:17:45;;;;;;;6.33;2.70;;;;;;;18.12;49.83;97291.47;4966774;28;20232;-74
2022/10/31 03:20:12;;;;;;;6.10;2.30;;;;;;;18.18;49.70;97294.47;4968313;28;20282;-74
2022/10/31 03:22:42;;;;;;;3.67;2.10;;;;;;;18.21;49.26;97306.53;4974034;28;20732;-74
2022/10/31 03:25:09;;;;;;;7.00;2.90;;;;;;;18.26;49.02;97294.75;4967663;28;20198;-74
2022/10/31 03:27:39;;;;;;;5.37;2.70;;;;;;;18.26;49.18;97297.38;4967699;28;20295;-74
2022/10/31 03:30:08;;;;;;;7.03;2.90;;;;;;;18.25;48.97;97294.88;4967698;28;20198;-74
2022/10/31 03:32:55;;;;;;;7.93;2.63;;;;;;;18.21;49.13;97291.66;4966956;28;20200;-74
2022/10/31 03:35:25;;;;;;;6.20;2.60;;;;;;;18.20;49.33;97291.75;4968262;28;20609;-74
2022/10/31 03:37:54;;;;;;;6.27;2.90;;;;;;;18.16;49.65;97282.44;4950483;28;20181;-74
2022/10/31 03:40:26;;;;;;;5.40;2.37;;;;;;;18.12;49.78;97278.34;4951327;28;20315;-74
2022/10/31 03:43:07;;;;;;;8.30;3.03;;;;;;;18.17;49.51;97284.13;4950113;28;20277;-75
2022/10/31 03:45:41;;;;;;;7.63;2.73;;;;;;;18.21;49.63;97281.16;4950052;28;20181;-74
2022/10/31 03:48:09;;;;;;;8.20;2.70;;;;;;;18.27;49.86;97282.50;4950545;28;20224;-74
2022/10/31 03:51:03;;;;;;;9.23;3.10;;;;;;;18.45;49.62;97299.53;4950500;28;20182;-74
2022/10/31 03:53:38;;;;;;;7.77;2.87;;;;;;;18.49;49.62;97307.09;4967201;28;20205;-74
2022/10/31 03:56:12;;;;;;;5.93;2.47;;;;;;;18.57;49.55;97320.47;4950326;28;20216;-75
2022/10/31 03:58:48;;;;;;;8.60;2.77;;;;;;;18.71;49.11;97324.72;4968084;28;20288;-74
2022/10/31 04:01:17;;;;;;;5.97;3.47;;;;;;;18.73;49.16;97333.31;4966714;28;20186;-75
2022/10/31 04:03:46;;;;;;;6.33;3.10;;;;;;;18.68;49.05;97335.44;4950268;28;20240;-75
2022/10/31 04:06:16;;;;;;;6.33;3.10;;;;;;;18.60;49.10;97333.38;4951028;28;20242;-75
2022/10/31 04:08:56;;;;;;;8.77;3.30;;;;;;;18.47;49.31;97336.97;4967150;28;20224;-75
2022/10/31 04:11:29;;;;;;;4.60;2.30;;;;;;;18.46;49.46;97324.84;4951124;28;20240;-75
2022/10/31 04:14:15;;;;;;;7.63;3.13;;;;;;;18.39;50.32;97331.44;4967855;28;20192;-75
2022/10/31 04:16:43;;;;;;;6.70;3.27;;;;;;;18.34;50.29;97330.94;4949873;28;20657;-74
2022/10/31 04:19:12;;;;;;;4.80;3.00;;;;;;;18.41;50.42;97340.03;4950837;28;20550;-74
2022/10/31 04:21:43;;;;;;;3.97;3.07;;;;;;;18.40;50.23;97348.84;4965715;28;20200;-74
2022/10/31 04:24:11;;;;;;;8.53;3.17;;;;;;;18.33;50.57;97347.59;4950826;28;20265;-74
2022/10/31 04:26:41;;;;;;;4.90;3.00;;;;;;;18.37;50.23;97349.06;4950052;28;20196;-74
2022/10/31 04:29:08;;;;;;;5.93;3.37;;;;;;;18.49;50.54;97358.69;4967588;28;20707;-74
2022/10/31 04:31:34;;;;;;;7.77;4.30;;;;;;;18.51;50.28;97351.56;4967872;28;20683;-74
2022/10/31 04:34:01;;;;;;;6.67;3.17;;;;;;;18.44;50.59;97350.34;4950018;28;20246;-74
2022/10/31 04:36:28;;;;;;;6.33;3.10;;;;;;;18.48;49.90;97357.03;4950774;28;20483;-75
2022/10/31 04:38:57;;;;;;;6.73;3.80;;;;;;;18.39;50.60;97363.75;4949592;28;20197;-75
2022/10/31 04:41:34;;;;;;;5.90;3.63;;;;;;;18.32;51.00;97366.94;4950696;28;20776;-75
2022/10/31 04:44:03;;;;;;;9.20;3.43;;;;;;;18.22;51.08;97366.72;4965890;28;20212;-75
2022/10/31 04:46:33;;;;;;;7.67;3.80;;;;;;;18.15;51.14;97364.66;4967494;28;20202;-74
2022/10/31 04:49:01;;;;;;;6.13;3.60;;;;;;;18.10;51.28;97375.47;4966341;28;20231;-74
2022/10/31 04:51:28;;;;;;;9.17;3.60;;;;;;;18.09;51.35;97376.41;4965726;28;20590;-75
2022/10/31 04:53:55;;;;;;;6.03;3.10;;;;;;;18.02;51.67;97384.78;4950459;28;20189;-76
2022/10/31 04:56:28;;;;;;;8.50;3.80;;;;;;;18.04;51.33;97375.88;4967033;28;20182;-75
2022/10/31 04:58:58;;;;;;;9.10;4.23;;;;;;;18.00;51.47;97376.22;4970043;28;20204;-75
2022/10/31 05:01:29;;;;;;;9.07;3.97;;;;;;;17.91;52.10;97389.97;4953160;28;20942;-75
2022/10/31 05:03:58;;;;;;;7.00;3.70;;;;;;;17.87;52.04;97384.06;4953358;28;20186;-75
2022/10/31 05:06:25;;;;;;;7.30;3.50;;;;;;;17.78;52.33;97393.41;4969744;28;20287;-75
2022/10/31 05:08:52;;;;;;;5.73;3.47;;;;;;;17.71;52.38;97396.56;4952991;28;20266;-74
2022/10/31 05:11:19;;;;;;;5.97;3.40;;;;;;;17.63;53.09;97399.72;4953844;28;20301;-75
2022/10/31 05:13:46;;;;;;;6.40;3.40;;;;;;;17.32;53.13;97373.03;4970060;28;20195;-76
2022/10/31 05:16:13;;;;;;;7.87;4.10;;;;;;;17.53;53.35;97409.16;4969754;28;20201;-74
2022/10/31 05:19:15;;;;;;;8.07;3.40;;;;;;;17.57;53.44;97415.84;4929987;29;20878;-75
2022/10/31 05:22:00;;;;;;;6.80;4.10;;;;;;;17.72;53.26;97425.25;4966566;28;20222;-74
2022/10/31 05:24:28;;;;;;;6.67;3.90;;;;;;;17.72;53.31;97416.59;4953322;28;20260;-74
2022/10/31 05:26:55;;;;;;;8.83;3.77;;;;;;;17.77;53.30;97417.94;4952343;28;20208;-74
2022/10/31 05:29:22;;;;;;;7.73;3.80;;;;;;;17.83;53.29;97425.38;4969571;28;20229;-74
2022/10/31 05:31:49;;;;;;;8.63;4.50;;;;;;;17.97;52.96;97423.59;4970162;28;20199;-74
2022/10/31 05:34:37;;;;;;;7.13;4.53;;;;;;;18.09;52.42;97430.63;4958954;28;20595;-75
2022/10/31 05:37:39;;;;;;;7.37;4.07;;;;;;;18.02;52.45;97427.56;4949898;29;20585;-74
2022/10/31 05:40:09;;;;;;;6.80;4.47;;;;;;;18.03;52.93;97439.75;4933164;29;20661;-74
2022/10/31 05:42:41;;;;;;;8.93;4.10;;;;;;;18.04;52.55;97435.31;4949657;29;20190;-74
2022/10/31 05:45:14;;;;;;;7.47;4.80;;;;;;;18.00;53.07;97439.94;4933118;29;20219;-74
2022/10/31 05:47:52;;;;;;;8.20;4.90;;;;;;;17.93;52.63;97448.34;4948673;29;20217;-75
2022/10/31 05:50:48;;;;;;;6.93;4.20;;;;;;;17.87;53.13;97447.81;4933815;28;20195;-75
2022/10/31 05:53:16;;;;;;;10.30;4.53;;;;;;;17.81;53.39;97444.75;4968217;28;20189;-74
2022/10/31 05:55:44;;;;;;;7.60;4.33;;;;;;;17.80;53.65;97448.34;4968461;28;20196;-74
2022/10/31 05:58:14;;;;;;;7.63;4.03;;;;;;;17.78;53.60;97455.47;4952261;28;20197;-74
2022/10/31 06:00:48;;;;;;;10.20;4.70;;;;;;;17.80;53.55;97453.59;4967929;28;20197;-74
2022/10/31 06:03:15;;;;;;;7.70;5.00;;;;;;;17.81;54.03;97457.88;4968829;28;20581;-74
2022/10/31 06:05:52;;;;;;;10.13;5.37;;;;;;;17.91;53.54;97460.72;4967431;28;20288;-75
2022/10/31 06:08:24;;;;;;;9.20;5.13;;;;;;;17.94;53.04;97455.25;4951507;28;20716;-74
2022/10/31 06:10:53;;;;;;;10.60;4.80;;;;;;;17.97;53.42;97468.16;4967347;28;20241;-74
2022/10/31 06:13:40;;;;;;;10.23;5.33;;;;;;;18.10;53.48;97466.34;4969081;28;20201;-74
2022/10/31 06:16:15;;;;;;;13.97;5.97;;;;;;;18.16;53.75;97463.31;4952777;28;20243;-75
2022/10/31 06:18:45;;;;;;;11.30;5.17;;;;;;;18.43;52.74;97464.91;4967033;28;20230;-73
2022/10/31 06:21:13;;;;;;;11.27;5.33;;;;;;;18.60;52.29;97458.47;4968055;28;20233;-73
2022/10/31 06:23:45;;;;;;;12.67;5.97;;;;;;;18.78;51.97;97467.63;4967617;28;20202;-73
2022/10/31 06:26:30;;;;;;;23.20;7.03;;;;;;;19.11;51.04;97472.22;4967748;28;20202;-73
2022/10/31 06:28:58;;;;;;;11.70;6.07;;;;;;;19.19;50.68;97475.97;4951818;28;20234;-74
2022/10/31 06:31:51;;;;;;;23.57;7.97;;;;;;;19.37;50.48;97473.84;4968536;28;20325;-74
2022/10/31 06:34:18;;;;;;;11.20;6.00;;;;;;;19.40;50.01;97469.19;4967950;28;20220;-75
2022/10/31 06:36:46;;;;;;;17.83;6.47;;;;;;;19.60;50.16;97475.56;4968897;28;20196;-75
2022/10/31 06:39:13;;;;;;;14.87;4.20;;;;;;;19.75;49.10;97481.47;4967545;28;20877;-73
2022/10/31 06:41:41;;;;;;;6.83;4.83;;;;;;;19.76;49.72;97486.63;4967922;28;20223;-72
2022/10/31 06:44:09;;;;;;;9.77;6.07;;;;;;;19.91;49.53;97482.81;4967159;28;20267;-74
2022/10/31 06:46:56;;;;;;;7.83;4.43;;;;;;;19.93;49.00;97482.69;4957958;28;20832;-74
2022/10/31 06:49:32;;;;;;;7.50;4.33;;;;;;;20.00;48.86;97484.75;4968454;28;20694;-74
2022/10/31 06:52:02;;;;;;;8.47;5.20;;;;;;;20.08;48.34;97473.66;4967276;28;20184;-73
2022/10/31 06:54:29;;;;;;;8.67;5.30;;;;;;;20.13;48.21;97480.22;4967084;28;20323;-73
2022/10/31 06:56:56;;;;;;;9.67;4.50;;;;;;;20.23;48.36;97491.75;4966774;28;20786;-75
2022/10/31 06:59:24;;;;;;;10.33;4.80;;;;;;;20.36;48.11;97491.63;4967551;28;20682;-74
2022/10/31 07:02:10;;;;;;;10.73;4.80;;;;;;;20.34;48.27;97490.91;4967867;28;20199;-74
2022/10/31 07:04:39;;;;;;;9.00;4.37;;;;;;;20.31;48.35;97487.69;4967151;28;20200;-74
2022/10/31 07:07:06;;;;;;;8.03;4.63;;;;;;;20.35;48.15;97491.75;4950695;28;20239;-74
2022/10/31 07:09:35;;;;;;;7.03;4.43;;;;;;;20.31;48.23;97493.78;4966872;28;20317;-73
2022/10/31 07:12:03;;;;;;;10.13;4.50;;;;;;;20.32;48.24;97494.63;4966911;28;20224;-74
2022/10/31 07:14:34;;;;;;;8.03;5.10;;;;;;;20.28;48.37;97486.97;4966411;28;20239;-74
2022/10/31 07:17:02;;;;;;;11.83;5.10;;;;;;;20.37;48.23;97498.56;4967162;28;20327;-75
2022/10/31 07:19:36;;;;;;;12.40;5.00;;;;;;;20.27;48.49;97487.09;4966071;28;20217;-74
2022/10/31 07:22:03;;;;;;;7.87;4.57;;;;;;;20.29;48.49;97495.72;4966733;28;20212;-74
2022/10/31 07:24:31;;;;;;;10.73;4.20;;;;;;;20.18;48.47;97471.97;4966378;28;20192;-74
2022/10/31 07:27:21;;;;;;;9.07;4.93;;;;;;;20.37;47.99;97487.22;4967663;28;20707;-74
2022/10/31 07:29:48;;;;;;;9.73;4.40;;;;;;;20.45;48.01;97483.03;4966866;28;20244;-75
2022/10/31 07:32:16;;;;;;;8.50;4.87;;;;;;;20.43;47.78;97482.31;4965794;28;20181;-74
2022/10/31 07:34:50;;;;;;;9.97;5.07;;;;;;;20.49;47.47;97476.56;4966841;28;20196;-74
2022/10/31 07:37:32;;;;;;;6.50;4.63;;;;;;;20.31;48.08;97488.53;4966017;28;20246;-74
2022/10/31 07:39:59;;;;;;;8.50;4.27;;;;;;;20.32;47.78;97486.75;4966034;28;20222;-74
2022/10/31 07:42:27;;;;;;;8.00;4.70;;;;;;;20.15;48.35;97482.75;4966653;28;20185;-74
2022/10/31 07:44:53;;;;;;;7.80;4.50;;;;;;;20.09;48.70;97488.47;4967008;28;20223;-74
2022/10/31 07:47:23;;;;;;;9.00;4.83;;;;;;;19.95;49.16;97499.19;4967444;28;20688;-74
2022/10/31 07:50:33;;;;;;;10.87;5.40;;;;;;;19.78;49.69;97484.72;4945767;29;20218;-73
2022/10/31 07:53:19;;;;;;;7.90;5.33;;;;;;;19.68;49.51;97493.41;4944892;29;20286;-74
2022/10/31 07:55:52;;;;;;;8.20;4.80;;;;;;;19.64;49.65;97486.72;4959624;28;20589;-74
2022/10/31 07:58:19;;;;;;;13.97;5.23;;;;;;;19.69;49.89;97484.56;4963836;28;20687;-72
2022/10/31 08:00:47;;;;;;;8.67;4.80;;;;;;;19.75;49.69;97482.31;4967586;28;20219;-73
2022/10/31 08:03:24;;;;;;;7.03;4.53;;;;;;;19.89;49.71;97486.50;4965865;28;20207;-73
2022/10/31 08:06:10;;;;;;;7.97;5.07;;;;;;;19.95;49.34;97479.00;4952173;28;20195;-74
2022/10/31 08:08:55;;;;;;;12.00;4.87;;;;;;;20.20;49.13;97484.09;4967931;28;20223;-74
2022/10/31 08:11:22;;;;;;;12.60;4.90;;;;;;;20.42;48.63;97478.03;4967883;28;20183;-74
2022/10/31 08:13:49;;;;;;;7.73;4.77;;;;;;;20.56;48.28;97472.50;4950166;28;20235;-74
2022/10/31 08:16:18;;;;;;;8.80;4.80;;;;;;;20.57;47.85;97499.63;4949579;28;20216;-73
2022/10/31 08:18:56;;;;;;;7.30;4.80;;;;;;;20.58;47.80;97491.66;4949621;28;20230;-74
2022/10/31 08:21:23;;;;;;;6.67;4.30;;;;;;;20.64;47.52;97488.53;4965952;28;20181;-74
2022/10/31 08:23:50;;;;;;;8.83;4.80;;;;;;;20.76;47.16;97479.66;4949136;28;20214;-73
2022/10/31 08:26:21;;;;;;;7.57;4.43;;;;;;;20.84;46.93;97493.03;4934727;28;20236;-74
2022/10/31 08:28:50;;;;;;;8.97;4.60;;;;;;;20.95;46.38;97477.25;4949318;28;20323;-73
2022/10/31 08:31:20;;;;;;;7.80;3.87;;;;;;;21.24;45.71;97484.59;4947186;28;20185;-74
2022/10/31 08:33:47;;;;;;;7.43;4.70;;;;;;;21.42;44.90;97488.38;4968726;28;20204;-74
2022/10/31 08:36:17;;;;;;;7.37;4.23;;;;;;;21.54;44.52;97484.72;4970495;28;20272;-73
2022/10/31 08:39:06;;;;;;;9.70;4.83;;;;;;;21.62;44.77;97488.41;4972229;28;20211;-75
2022/10/31 08:41:35;;;;;;;7.53;4.03;;;;;;;21.64;44.54;97493.53;4952469;28;20200;-74
2022/10/31 08:44:02;;;;;;;10.53;4.40;;;;;;;21.64;45.03;97493.53;4971001;28;20204;-74
2022/10/31 08:46:29;;;;;;;19.93;7.43;;;;;;;21.17;45.93;97497.44;4970044;28;20228;-74
2022/10/31 08:48:56;;;;;;;9.83;4.93;;;;;;;21.23;45.61;97490.81;4968449;28;20814;-73
2022/10/31 08:52:03;;;;;;;17.87;5.70;;;;;;;21.55;45.19;97489.88;4968600;28;20201;-73
2022/10/31 08:55:26;;;;;;;11.97;5.43;;;;;;;21.62;44.96;97504.22;4967137;28;20556;-74
2022/10/31 08:58:23;;;;;;;9.30;4.77;;;;;;;21.77;44.76;97500.31;4952820;28;20664;-74
2022/10/31 09:00:56;;;;;;;16.70;5.37;;;;;;;21.72;44.77;97506.94;4969488;28;20197;-74
2022/10/31 09:03:27;;;;;;;10.33;5.30;;;;;;;21.84;44.93;97503.31;4969516;28;20192;-74
2022/10/31 09:05:56;;;;;;;9.33;4.87;;;;;;;21.88;44.05;97517.91;4953252;28;20703;-73
2022/10/31 09:08:24;;;;;;;7.57;4.17;;;;;;;22.02;43.72;97499.13;4968220;28;20205;-74
2022/10/31 09:10:51;;;;;;;10.67;4.70;;;;;;;22.11;43.23;97510.72;4952511;28;20225;-73
2022/10/31 09:13:33;;;;;;;10.97;4.37;;;;;;;22.14;43.21;97498.09;4968737;28;20228;-74
2022/10/31 09:16:33;;;;;;;6.70;4.27;;;;;;;22.26;43.46;97504.13;4960292;28;20272;-76
2022/10/31 09:19:00;;;;;;;8.93;4.70;;;;;;;22.05;43.30;97503.31;4968653;28;20194;-75
2022/10/31 09:21:27;;;;;;;8.80;3.83;;;;;;;21.89;44.00;97509.03;4969664;28;20202;-75
2022/10/31 09:23:57;;;;;;;7.33;4.30;;;;;;;21.91;44.22;97506.28;4967454;28;20708;-75
2022/10/31 09:26:24;;;;;;;6.60;4.17;;;;;;;21.75;44.11;97501.41;4968351;28;20591;-75
2022/10/31 09:29:10;;;;;;;7.00;3.60;;;;;;;21.73;43.95;97501.53;4967681;28;20312;-74
2022/10/31 09:31:38;;;;;;;5.33;3.17;;;;;;;21.64;43.75;97493.53;4968784;28;20216;-75
2022/10/31 09:34:25;;;;;;;6.27;3.77;;;;;;;21.90;43.96;97509.88;4968159;28;20200;-74
2022/10/31 09:37:24;;;;;;;4.30;3.07;;;;;;;21.97;43.52;97505.78;4962732;28;20585;-76
2022/10/31 09:39:51;;;;;;;5.80;3.73;;;;;;;21.97;43.31;97505.78;4967861;28;20198;-74
2022/10/31 09:42:34;;;;;;;11.03;3.80;;;;;;;21.96;43.23;97510.19;4966424;28;20203;-75
2022/10/31 09:45:36;;;;;;;7.77;4.40;;;;;;;22.05;42.85;97514.69;4967061;28;20204;-74
2022/10/31 09:48:35;;;;;;;7.37;4.07;;;;;;;22.21;42.81;97515.09;4952580;28;20275;-75
2022/10/31 09:51:14;;;;;;;5.77;3.83;;;;;;;22.15;42.92;97510.34;4952229;28;20300;-75
2022/10/31 09:54:18;;;;;;;7.30;3.70;;;;;;;21.93;42.78;97505.16;4969450;28;20637;-73
2022/10/31 09:56:45;;;;;;;7.03;4.10;;;;;;;21.79;42.94;97511.56;4969554;28;20299;-75
2022/10/31 09:59:28;;;;;;;8.37;3.60;;;;;;;21.73;43.32;97501.53;4951095;28;20198;-74
2022/10/31 10:02:00;;;;;;;5.40;3.50;;;;;;;21.70;43.37;97500.97;4967788;28;20588;-74
2022/10/31 10:04:52;;;;;;;6.57;3.93;;;;;;;21.80;43.40;97488.69;4968660;28;20315;-74
2022/10/31 10:07:32;;;;;;;5.43;3.40;;;;;;;21.99;42.79;97499.38;4952602;28;20200;-73
2022/10/31 10:10:33;;;;;;;4.43;3.20;;;;;;;22.16;42.48;97501.44;4972738;28;20696;-73
2022/10/31 10:13:30;;;;;;;6.20;3.70;;;;;;;22.13;42.71;97501.72;4965257;28;20215;-75
2022/10/31 10:16:09;;;;;;;6.47;3.80;;;;;;;22.36;42.01;97495.28;4950364;28;20252;-75
2022/10/31 10:18:59;;;;;;;4.37;2.93;;;;;;;22.49;41.15;97482.72;4964123;28;20927;-75
2022/10/31 10:21:44;;;;;;;7.37;3.77;;;;;;;22.57;41.57;97489.97;4945207;29;20198;-76
2022/10/31 10:24:41;;;;;;;6.60;3.10;;;;;;;22.62;41.01;97493.09;4943893;28;20266;-76
2022/10/31 10:27:30;;;;;;;10.53;3.53;;;;;;;22.78;41.04;97477.56;4949022;28;20196;-76
2022/10/31 10:30:11;;;;;;;7.10;3.07;;;;;;;23.06;40.74;97491.84;4947923;29;20223;-76
2022/10/31 10:32:52;;;;;;;8.03;3.53;;;;;;;22.91;40.68;97469.41;4939870;28;20207;-76
2022/10/31 10:35:30;;;;;;;7.03;3.63;;;;;;;23.11;40.05;97479.88;4948855;29;20202;-76
2022/10/31 10:38:03;;;;;;;6.30;3.80;;;;;;;23.29;40.15;97474.72;4948445;28;20575;-76
2022/10/31 10:40:30;;;;;;;6.63;3.70;;;;;;;23.51;40.08;97479.81;4962969;28;20194;-76
2022/10/31 10:48:49;;;;;;;5.57;3.23;;;;;;;23.18;40.15;97473.09;4943476;29;20984;-76
2022/10/31 10:51:22;;;;;;;5.47;2.47;;;;;;;22.98;39.45;97473.19;4939699;29;20198;-77
2022/10/31 10:54:34;;;;;;;5.53;2.70;;;;;;;23.06;39.37;97479.44;4943006;29;20195;-75
2022/10/31 10:57:22;;;;;;;5.43;2.50;;;;;;;23.15;39.16;97465.41;4948249;28;20192;-75
2022/10/31 10:59:50;;;;;;;4.83;2.17;;;;;;;22.91;39.62;97467.59;4946335;29;20210;-76
2022/10/31 11:02:24;;;;;;;4.90;2.30;;;;;;;22.85;39.45;97467.31;4940521;28;20199;-75
2022/10/31 11:04:54;;;;;;;6.67;2.57;;;;;;;22.95;39.01;97465.50;4939222;29;20197;-76
2022/10/31 11:07:22;;;;;;;6.87;3.00;;;;;;;23.07;39.32;97467.91;4955479;28;20188;-76
2022/10/31 11:09:49;;;;;;;5.07;2.57;;;;;;;22.88;39.49;97451.16;4946952;29;20709;-77
2022/10/31 11:12:21;;;;;;;7.17;2.90;;;;;;;23.12;38.76;97460.38;4948249;28;20275;-77
2022/10/31 11:14:59;;;;;;;7.27;2.40;;;;;;;22.97;39.01;97458.28;4947177;29;20220;-76
2022/10/31 11:17:31;;;;;;;5.63;2.47;;;;;;;23.01;39.59;97462.31;4945948;28;20226;-76
2022/10/31 11:20:04;;;;;;;7.27;3.10;;;;;;;22.98;39.36;97462.63;4944185;29;20280;-77
2022/10/31 11:22:31;;;;;;;5.93;2.50;;;;;;;22.80;39.50;97465.06;4937569;29;20262;-76
2022/10/31 11:24:58;;;;;;;7.30;3.30;;;;;;;22.81;39.44;97465.91;4938881;29;20290;-76
2022/10/31 11:27:26;;;;;;;5.90;2.33;;;;;;;22.78;39.70;97466.16;4937805;29;20195;-75
2022/10/31 11:30:04;;;;;;;6.77;3.00;;;;;;;23.03;39.41;97463.03;4937144;28;20311;-76
2022/10/31 11:32:31;;;;;;;5.60;2.90;;;;;;;23.28;38.83;97451.94;4936811;29;20696;-77
2022/10/31 11:35:01;;;;;;;6.07;3.13;;;;;;;23.39;38.81;97452.66;4951357;28;20268;-77
2022/10/31 11:37:34;;;;;;;6.60;2.97;;;;;;;23.07;39.27;97445.94;4938524;28;20688;-77
2022/10/31 11:40:06;;;;;;;5.73;2.67;;;;;;;23.03;39.96;97450.66;4939072;28;20584;-77
2022/10/31 11:42:40;;;;;;;10.17;2.83;;;;;;;22.99;39.90;97448.41;4938705;29;20197;-77
2022/10/31 11:45:33;;;;;;;6.50;3.00;;;;;;;22.93;39.82;97447.16;4936621;29;20309;-77
2022/10/31 11:48:01;;;;;;;6.63;2.70;;;;;;;23.17;39.87;97438.84;4932215;29;20205;-77
2022/10/31 11:50:36;;;;;;;8.80;3.43;;;;;;;23.39;39.18;97434.16;4952633;28;20219;-77
2022/10/31 11:53:12;;;;;;;3.23;2.40;;;;;;;23.38;39.07;97435.13;4952074;28;20212;-77
2022/10/31 11:55:39;;;;;;;4.73;2.40;;;;;;;23.43;39.14;97442.66;4936627;28;20200;-77
2022/10/31 11:58:24;;;;;;;5.00;2.60;;;;;;;23.44;38.88;97445.16;4938432;29;20192;-77
2022/10/31 12:00:55;;;;;;;3.70;2.30;;;;;;;23.27;39.28;97431.75;4936935;29;20290;-77
2022/10/31 12:03:21;;;;;;;4.83;2.33;;;;;;;23.23;39.19;97436.47;4947048;28;20871;-77
2022/10/31 12:05:59;;;;;;;4.33;2.70;;;;;;;23.34;39.06;97424.97;4952446;28;20235;-77
2022/10/31 12:08:31;;;;;;;5.07;2.40;;;;;;;23.47;38.73;97422.91;4937348;29;20186;-77
2022/10/31 12:11:07;;;;;;;5.20;2.47;;;;;;;23.51;38.87;97426.94;4936930;28;20297;-77